createdAt,value
2023-05-18T00:04:45.271Z,8.22
2023-05-18T00:09:46.895Z,8.14
2023-05-18T00:14:48.415Z,8.10
2023-05-18T00:19:50.343Z,8.07
2023-05-18T00:24:51.918Z,8.04
2023-05-18T00:29:53.443Z,7.94
2023-05-18T00:34:55.059Z,7.79
2023-05-18T00:39:56.600Z,7.69
2023-05-18T00:44:58.159Z,7.67
2023-05-18T00:49:59.697Z,7.63
2023-05-18T00:55:01.571Z,7.61
2023-05-18T01:00:03.342Z,7.55
2023-05-18T01:05:05.053Z,7.53
2023-05-18T01:10:07.415Z,7.50
2023-05-18T01:15:14.627Z,7.46
2023-05-18T01:20:25.005Z,7.48
2023-05-18T01:25:54.082Z,7.53
2023-05-18T01:30:56.807Z,7.53
2023-05-18T01:35:58.434Z,7.52
2023-05-18T01:41:14.931Z,7.51
2023-05-18T01:46:25.324Z,7.45
2023-05-18T01:51:33.201Z,7.50
2023-05-18T01:56:35.920Z,7.46
2023-05-18T02:01:37.991Z,7.45
2023-05-18T02:06:39.805Z,7.42
2023-05-18T02:11:41.501Z,7.43
2023-05-18T02:16:47.126Z,7.46
2023-05-18T02:21:48.953Z,7.43
2023-05-18T02:26:53.625Z,7.43
2023-05-18T02:31:55.396Z,7.38
2023-05-18T02:36:58.087Z,7.33
2023-05-18T02:42:00.253Z,7.30
2023-05-18T02:47:01.796Z,7.29
2023-05-18T02:52:03.454Z,7.29
2023-05-18T02:57:05.070Z,7.29
2023-05-18T03:02:06.811Z,7.22
2023-05-18T03:07:08.665Z,7.24
2023-05-18T03:12:10.244Z,7.25
2023-05-18T03:17:11.829Z,7.34
2023-05-18T03:22:13.410Z,7.33
2023-05-18T03:27:16.450Z,7.39
2023-05-18T03:32:21.370Z,7.43
2023-05-18T03:37:22.892Z,7.47
2023-05-18T03:42:25.735Z,7.47
2023-05-18T03:47:27.335Z,7.50
2023-05-18T03:52:29.857Z,7.54
2023-05-18T03:57:32.200Z,7.59
2023-05-18T04:02:33.951Z,7.66
2023-05-18T04:07:43.870Z,7.75
2023-05-18T04:12:45.875Z,7.74
2023-05-18T04:17:50.968Z,7.78
2023-05-18T04:22:52.550Z,7.83
2023-05-18T04:27:55.223Z,7.87
2023-05-18T04:32:58.373Z,7.93
2023-05-18T04:38:00.095Z,8.02
2023-05-18T04:43:01.773Z,8.11
2023-05-18T04:48:03.494Z,8.15
2023-05-18T04:53:07.751Z,8.19
2023-05-18T04:58:10.485Z,8.25
2023-05-18T05:03:12.257Z,8.30
2023-05-18T05:08:13.888Z,8.36
2023-05-18T05:13:15.496Z,8.43
2023-05-18T05:18:17.105Z,8.44
2023-05-18T05:23:18.795Z,8.51
2023-05-18T05:28:20.520Z,8.62
2023-05-18T05:33:22.024Z,8.67
2023-05-18T05:38:23.533Z,8.66
2023-05-18T05:43:25.099Z,8.70
2023-05-18T05:48:26.688Z,8.74
2023-05-18T05:53:29.676Z,8.72
2023-05-18T05:58:31.206Z,8.76
2023-05-18T06:03:35.173Z,8.73
2023-05-18T06:08:37.503Z,8.74
2023-05-18T06:13:39.115Z,8.74
2023-05-18T06:18:40.754Z,8.86
2023-05-18T06:23:44.499Z,8.95
2023-05-18T06:28:46.018Z,8.97
2023-05-18T06:33:48.048Z,8.92
2023-05-18T06:38:49.563Z,8.98
2023-05-18T06:43:51.205Z,8.96
2023-05-18T06:48:53.252Z,8.98
2023-05-18T06:53:54.762Z,9.07
2023-05-18T06:58:57.018Z,9.10
2023-05-18T07:03:59.944Z,9.10
2023-05-18T07:09:03.297Z,9.26
2023-05-18T07:14:04.828Z,9.36
2023-05-18T07:19:06.787Z,9.39
2023-05-18T07:24:08.441Z,9.45
2023-05-18T07:29:10.006Z,9.40
2023-05-18T07:34:11.620Z,9.45
2023-05-18T07:39:19.707Z,9.67
2023-05-18T07:44:21.374Z,9.92
2023-05-18T07:49:25.959Z,9.99
2023-05-18T07:54:27.573Z,10.14
2023-05-18T07:59:29.172Z,10.22
2023-05-18T08:04:31.035Z,10.07
2023-05-18T08:09:32.575Z,9.90
2023-05-18T08:14:34.135Z,9.87
2023-05-18T08:19:37.412Z,9.85
2023-05-18T08:24:40.054Z,9.79
2023-05-18T08:29:41.597Z,9.75
2023-05-18T08:34:46.286Z,9.88
2023-05-18T08:39:47.841Z,9.92
2023-05-18T08:45:30.371Z,9.96
2023-05-18T08:50:33.153Z,9.89
2023-05-18T08:55:37.001Z,9.87
2023-05-18T09:00:38.801Z,9.96
2023-05-18T09:05:42.013Z,10.14
2023-05-18T09:10:44.112Z,10.46
2023-05-18T09:15:46.227Z,10.45
2023-05-18T09:20:48.170Z,10.55
2023-05-18T09:25:51.139Z,10.81
2023-05-18T09:30:54.078Z,11.06
2023-05-18T09:35:55.754Z,10.90
2023-05-18T09:40:57.365Z,11.01
2023-05-18T09:46:06.486Z,11.18
2023-05-18T09:51:10.609Z,11.38
2023-05-18T09:56:12.476Z,11.62
2023-05-18T10:01:14.100Z,12.22
2023-05-18T10:06:19.871Z,13.18
2023-05-18T10:11:21.942Z,15.27
2023-05-18T10:16:24.655Z,16.71
2023-05-18T10:21:31.123Z,16.57
2023-05-18T10:26:36.889Z,16.53
2023-05-18T10:31:39.046Z,16.02
2023-05-18T10:36:42.781Z,15.20
2023-05-18T10:41:46.734Z,14.48
2023-05-18T10:46:50.144Z,14.48
2023-05-18T10:51:55.865Z,13.75
2023-05-18T10:56:57.689Z,12.81
2023-05-18T11:02:01.309Z,12.47
2023-05-18T11:07:03.099Z,12.42
2023-05-18T11:12:12.241Z,12.28
2023-05-18T11:17:29.427Z,12.12
2023-05-18T11:22:57.420Z,12.11
2023-05-18T11:28:05.535Z,11.94
2023-05-18T11:33:17.508Z,11.85
2023-05-18T11:38:19.233Z,12.16
2023-05-18T11:43:24.934Z,12.32
2023-05-18T11:48:30.226Z,12.54
2023-05-18T11:53:31.960Z,12.32
2023-05-18T11:58:33.578Z,12.37
2023-05-18T12:03:36.059Z,12.51
2023-05-18T12:08:41.023Z,12.63
2023-05-18T12:13:42.770Z,12.54
2023-05-18T12:18:51.101Z,12.51
2023-05-18T12:24:01.029Z,12.61
2023-05-18T12:29:02.621Z,12.68
2023-05-18T12:34:04.219Z,12.74
2023-05-18T12:39:06.042Z,12.72
2023-05-18T12:44:07.694Z,12.77
2023-05-18T12:49:10.370Z,12.78
2023-05-18T12:54:11.976Z,12.71
2023-05-18T12:59:18.517Z,12.85
2023-05-18T13:04:20.100Z,12.84
2023-05-18T13:09:21.714Z,12.98
2023-05-18T13:14:23.711Z,12.90
2023-05-18T13:19:26.119Z,12.90
2023-05-18T13:24:27.808Z,12.83
2023-05-18T13:29:29.624Z,12.87
2023-05-18T13:34:31.734Z,12.98
2023-05-18T13:39:33.277Z,13.13
2023-05-18T13:44:34.979Z,13.30
2023-05-18T13:49:36.626Z,13.31
2023-05-18T13:54:38.433Z,13.29
2023-05-18T13:59:40.400Z,13.42
2023-05-18T14:04:41.946Z,13.67
2023-05-18T14:09:43.520Z,13.74
2023-05-18T14:14:45.147Z,13.71
2023-05-18T14:19:46.657Z,13.65
2023-05-18T14:24:48.808Z,13.61
2023-05-18T14:29:51.234Z,13.76
2023-05-18T14:34:55.417Z,13.76
2023-05-18T14:39:57.060Z,13.87
2023-05-18T14:44:58.637Z,13.88
2023-05-18T14:50:00.224Z,13.85
2023-05-18T14:55:01.867Z,13.92
2023-05-18T15:00:03.906Z,13.77
2023-05-18T15:05:05.976Z,13.62
2023-05-18T15:10:08.234Z,13.70
2023-05-18T15:15:10.072Z,13.80
2023-05-18T15:20:11.875Z,13.71
2023-05-18T15:25:13.496Z,13.73
2023-05-18T15:30:15.227Z,13.59
2023-05-18T15:35:16.953Z,13.57
2023-05-18T15:40:18.672Z,13.49
2023-05-18T15:45:20.316Z,13.49
2023-05-18T15:50:21.854Z,13.49
2023-05-18T15:55:23.558Z,13.49
2023-05-18T16:00:26.284Z,13.41
2023-05-18T16:05:27.805Z,13.41
2023-05-18T16:10:29.740Z,13.42
2023-05-18T16:15:35.242Z,13.42
2023-05-18T16:20:36.789Z,13.41
2023-05-18T16:25:38.343Z,13.41
2023-05-18T16:30:39.908Z,13.41
2023-05-18T16:35:41.454Z,13.37
2023-05-18T16:40:43.169Z,13.34
2023-05-18T16:45:45.269Z,13.29
2023-05-18T16:50:47.051Z,13.31
2023-05-18T16:55:50.514Z,13.31
2023-05-18T17:00:53.282Z,13.28
2023-05-18T17:05:54.861Z,13.25
2023-05-18T17:10:56.379Z,13.22
2023-05-18T17:15:57.967Z,13.18
2023-05-18T17:20:59.566Z,13.12
2023-05-18T17:26:06.763Z,13.10
2023-05-18T17:31:08.642Z,13.07
2023-05-18T17:36:10.209Z,13.03
2023-05-18T17:41:11.782Z,12.97
2023-05-18T17:46:13.421Z,13.01
2023-05-18T17:51:15.642Z,12.99
2023-05-18T17:56:17.421Z,12.95
2023-05-18T18:01:19.030Z,12.93
2023-05-18T18:06:24.279Z,12.85
2023-05-18T18:11:26.583Z,12.81
2023-05-18T18:16:28.274Z,12.72
2023-05-18T18:21:29.843Z,12.64
2023-05-18T18:26:32.219Z,12.59
2023-05-18T18:31:33.821Z,12.43
2023-05-18T18:36:36.187Z,12.42
2023-05-18T18:41:37.796Z,12.46
2023-05-18T18:46:39.490Z,12.40
2023-05-18T18:51:41.037Z,12.29
2023-05-18T18:56:43.980Z,12.20
2023-05-18T19:01:46.452Z,12.07
2023-05-18T19:06:48.455Z,12.01
2023-05-18T19:11:49.980Z,11.92
2023-05-18T19:16:51.575Z,11.88
2023-05-18T19:21:53.152Z,11.89
2023-05-18T19:26:54.832Z,11.84
2023-05-18T19:31:57.259Z,11.74
2023-05-18T19:36:58.840Z,11.66
2023-05-18T19:42:00.885Z,11.52
2023-05-18T19:47:02.551Z,11.45
2023-05-18T19:52:08.145Z,11.42
2023-05-18T19:57:09.762Z,11.38
2023-05-18T20:02:11.335Z,11.36
2023-05-18T20:07:12.933Z,11.30
2023-05-18T20:12:14.553Z,11.23
2023-05-18T20:17:16.837Z,11.22
2023-05-18T20:22:18.484Z,11.12
2023-05-18T20:27:20.088Z,11.10
2023-05-18T20:32:21.860Z,11.03
2023-05-18T20:37:26.049Z,11.00
2023-05-18T20:42:38.497Z,10.94
2023-05-18T20:47:41.658Z,10.86
2023-05-18T20:52:43.767Z,10.79
2023-05-18T20:57:48.957Z,10.64
2023-05-18T21:02:50.614Z,10.59
2023-05-18T21:07:53.567Z,10.55
2023-05-18T21:12:55.489Z,10.46
2023-05-18T21:17:57.059Z,10.44
2023-05-18T21:22:58.890Z,10.38
2023-05-18T21:28:00.537Z,10.34
2023-05-18T21:33:02.589Z,10.27
2023-05-18T21:38:04.489Z,10.17
2023-05-18T21:43:06.042Z,10.14
2023-05-18T21:48:07.862Z,10.14
2023-05-18T21:53:09.513Z,10.09
2023-05-18T21:58:11.075Z,10.06
2023-05-18T22:03:12.831Z,10.10
2023-05-18T22:08:14.362Z,10.05
2023-05-18T22:13:16.106Z,10.00
2023-05-18T22:18:19.296Z,10.00
2023-05-18T22:23:22.092Z,10.02
2023-05-18T22:28:23.722Z,10.02
2023-05-18T22:33:25.552Z,10.03
2023-05-18T22:38:27.732Z,9.99
2023-05-18T22:43:29.854Z,9.96
2023-05-18T22:48:34.573Z,9.97
2023-05-18T22:53:36.147Z,9.99
2023-05-18T22:58:37.747Z,9.93
2023-05-18T23:03:39.312Z,9.95
2023-05-18T23:08:40.877Z,9.99
2023-05-18T23:13:42.531Z,10.01
2023-05-18T23:18:46.101Z,10.01
2023-05-18T23:23:47.720Z,9.97
2023-05-18T23:28:49.575Z,9.98
2023-05-18T23:33:51.617Z,9.96
2023-05-18T23:39:00.873Z,9.92
2023-05-18T23:44:02.660Z,9.88
2023-05-18T23:49:04.543Z,9.86
2023-05-18T23:54:07.412Z,9.75
2023-05-18T23:59:09.894Z,9.75
